createdAt,value
2022-12-11T00:01:20.552Z,96662.97
2022-12-11T00:04:05.991Z,96664.38
2022-12-11T00:06:52.975Z,96658.72
2022-12-11T00:09:38.633Z,96640.34
2022-12-11T00:12:23.989Z,96473.72
2022-12-11T00:15:09.968Z,96633.50
2022-12-11T00:17:56.909Z,96437.81
2022-12-11T00:20:42.929Z,96484.63
2022-12-11T00:23:28.787Z,96603.69
2022-12-11T00:26:15.647Z,96651.59
2022-12-11T00:29:00.891Z,96650.84
2022-12-11T00:31:46.381Z,96477.69
2022-12-11T00:34:31.604Z,96639.91
2022-12-11T00:37:17.077Z,96585.09
2022-12-11T00:40:02.552Z,96400.59
2022-12-11T00:42:47.789Z,96589.59
2022-12-11T00:45:37.278Z,96619.19
2022-12-11T00:48:22.730Z,96428.31
2022-12-11T00:51:08.456Z,96620.19
2022-12-11T00:53:54.030Z,96586.03
2022-12-11T00:56:39.364Z,96517.16
2022-12-11T00:59:24.694Z,96420.25
2022-12-11T01:02:10.646Z,96547.91
2022-12-11T01:04:56.186Z,96601.25
2022-12-11T01:07:41.914Z,96536.63
2022-12-11T01:10:27.827Z,96542.09
2022-12-11T01:13:13.033Z,96455.75
2022-12-11T01:15:58.641Z,96609.25
2022-12-11T01:18:44.126Z,96575.56
2022-12-11T01:21:29.631Z,96565.13
2022-12-11T01:24:15.043Z,96575.06
2022-12-11T01:27:00.481Z,96552.06
2022-12-11T01:29:45.946Z,96544.84
2022-12-11T01:32:32.335Z,96488.22
2022-12-11T01:35:19.061Z,96508.34
2022-12-11T01:38:04.711Z,96346.88
2022-12-11T01:40:51.574Z,96509.69
2022-12-11T01:44:06.142Z,96539.97
2022-12-11T01:46:51.528Z,96465.59
2022-12-11T01:49:39.308Z,96551.63
2022-12-11T01:52:25.052Z,96502.59
2022-12-11T01:55:11.003Z,96497.91
2022-12-11T01:57:56.741Z,96418.53
2022-12-11T02:00:42.044Z,96449.22
2022-12-11T02:03:27.592Z,96318.13
2022-12-11T02:06:38.006Z,96482.50
2022-12-11T02:09:26.953Z,96465.31
2022-12-11T02:12:31.157Z,96476.72
2022-12-11T02:15:22.840Z,96475.28
2022-12-11T02:18:33.521Z,96407.16
2022-12-11T02:21:27.123Z,96505.66
2022-12-11T02:24:57.611Z,96472.31
2022-12-11T02:27:48.742Z,96494.53
2022-12-11T02:30:39.728Z,96421.75
2022-12-11T02:33:34.301Z,96428.22
2022-12-11T02:36:24.557Z,96259.41
2022-12-11T02:39:13.451Z,96240.25
2022-12-11T02:41:59.982Z,96360.03
2022-12-11T02:44:48.927Z,96286.09
2022-12-11T02:47:34.340Z,96439.72
2022-12-11T02:50:23.508Z,96310.19
2022-12-11T02:53:13.230Z,96385.78
2022-12-11T02:56:10.383Z,96405.28
2022-12-11T02:59:00.685Z,96267.34
2022-12-11T03:01:47.035Z,96390.44
2022-12-11T03:04:35.298Z,96390.16
2022-12-11T03:07:27.347Z,96357.81
2022-12-11T03:10:18.950Z,96413.91
2022-12-11T03:13:05.103Z,96291.91
2022-12-11T03:16:11.175Z,96411.06
2022-12-11T03:19:09.531Z,96433.63
2022-12-11T03:22:03.624Z,96392.75
2022-12-11T03:24:48.893Z,96412.19
2022-12-11T03:27:53.378Z,96191.97
2022-12-11T03:30:40.983Z,96168.53
2022-12-11T03:33:32.937Z,96331.72
2022-12-11T03:36:24.435Z,96373.59
2022-12-11T03:39:16.854Z,96168.81
2022-12-11T03:42:06.682Z,96201.78
2022-12-11T03:44:54.604Z,96193.09
2022-12-11T03:47:42.195Z,96203.22
2022-12-11T03:50:30.720Z,96326.97
2022-12-11T03:53:18.630Z,96347.66
2022-12-11T03:56:10.449Z,96276.94
2022-12-11T03:58:56.088Z,96239.06
2022-12-11T04:01:42.196Z,96245.44
2022-12-11T04:04:27.626Z,96264.66
2022-12-11T04:07:13.034Z,96329.44
2022-12-11T04:10:00.212Z,96253.78
2022-12-11T04:12:45.407Z,96299.44
2022-12-11T04:15:30.681Z,96099.25
2022-12-11T04:18:34.610Z,96100.00
2022-12-11T04:21:39.871Z,96250.47
2022-12-11T04:24:25.602Z,96307.25
2022-12-11T04:27:11.006Z,96286.66
2022-12-11T04:29:56.753Z,96108.66
2022-12-11T04:32:42.241Z,96088.00
2022-12-11T04:35:27.656Z,96239.91
2022-12-11T04:38:13.148Z,96287.41
2022-12-11T04:41:07.125Z,96279.63
2022-12-11T04:43:52.552Z,96239.47
2022-12-11T04:46:37.911Z,96230.31
2022-12-11T04:49:23.653Z,96242.34
2022-12-11T04:52:09.410Z,96119.91
2022-12-11T04:54:55.056Z,96045.47
2022-12-11T04:57:40.902Z,96227.50
2022-12-11T05:00:27.213Z,96178.78
2022-12-11T05:03:12.954Z,96014.03
2022-12-11T05:05:58.675Z,96245.13
2022-12-11T05:08:45.487Z,96201.28
2022-12-11T05:11:30.787Z,96065.25
2022-12-11T05:14:16.197Z,96213.03
2022-12-11T05:17:01.632Z,96157.47
2022-12-11T05:19:49.041Z,96001.25
2022-12-11T05:22:34.531Z,96124.09
2022-12-11T05:25:19.766Z,96124.66
2022-12-11T05:28:05.556Z,96165.53
2022-12-11T05:31:23.984Z,96019.91
2022-12-11T05:34:09.234Z,96134.38
2022-12-11T05:36:54.667Z,96147.09
2022-12-11T05:39:40.135Z,96113.69
2022-12-11T05:42:28.827Z,96100.75
2022-12-11T05:45:14.894Z,96136.31
2022-12-11T05:48:00.239Z,96153.66
2022-12-11T05:50:55.817Z,96165.38
2022-12-11T05:53:42.329Z,96114.81
2022-12-11T05:56:30.245Z,96004.69
2022-12-11T05:59:15.584Z,96184.34
2022-12-11T06:02:01.143Z,96099.25
2022-12-11T06:04:46.980Z,96096.34
2022-12-11T06:07:32.335Z,96134.88
2022-12-11T06:10:17.746Z,95931.63
2022-12-11T06:13:03.633Z,96134.16
2022-12-11T06:15:49.564Z,96080.31
2022-12-11T06:18:39.121Z,96051.91
2022-12-11T06:21:27.995Z,96117.00
2022-12-11T06:24:14.026Z,96069.88
2022-12-11T06:26:59.391Z,95871.13
2022-12-11T06:29:44.829Z,96094.13
2022-12-11T06:32:30.298Z,96086.94
2022-12-11T06:35:15.961Z,96059.41
2022-12-11T06:38:01.922Z,96129.59
2022-12-11T06:40:54.877Z,96068.88
2022-12-11T06:43:42.188Z,96095.91
2022-12-11T06:46:27.619Z,96082.09
2022-12-11T06:49:13.396Z,96101.53
2022-12-11T06:51:58.695Z,95877.97
2022-12-11T06:54:44.135Z,96062.69
2022-12-11T06:57:29.392Z,96097.75
2022-12-11T07:00:15.935Z,96088.69
2022-12-11T07:03:01.344Z,95879.94
2022-12-11T07:05:46.820Z,96038.13
2022-12-11T07:08:32.061Z,96017.94
2022-12-11T07:11:19.220Z,95812.31
2022-12-11T07:14:04.754Z,96040.94
2022-12-11T07:16:50.150Z,96045.69
2022-12-11T07:19:35.461Z,96048.06
2022-12-11T07:22:21.683Z,96033.63
2022-12-11T07:25:07.918Z,96051.16
2022-12-11T07:27:53.497Z,96036.75
2022-12-11T07:30:39.558Z,96036.75
2022-12-11T07:33:24.949Z,95772.41
2022-12-11T07:36:12.268Z,96035.25
2022-12-11T07:38:59.237Z,95959.34
2022-12-11T07:41:46.001Z,96033.63
2022-12-11T07:44:31.551Z,95964.06
2022-12-11T07:47:17.153Z,95868.38
2022-12-11T07:50:02.665Z,95907.72
2022-12-11T07:52:49.005Z,96018.00
2022-12-11T07:55:34.979Z,96006.44
2022-12-11T07:58:20.774Z,96032.19
2022-12-11T08:01:10.620Z,96018.72
2022-12-11T08:03:56.721Z,96023.34
2022-12-11T08:06:45.603Z,95976.38
2022-12-11T08:09:35.631Z,96007.13
2022-12-11T08:12:22.415Z,96006.81
2022-12-11T08:15:12.065Z,95998.16
2022-12-11T08:17:58.175Z,95917.91
2022-12-11T08:20:43.872Z,95972.38
2022-12-11T08:23:30.611Z,95987.09
2022-12-11T08:26:28.122Z,95973.22
2022-12-11T08:29:15.364Z,95952.16
2022-12-11T08:32:01.570Z,95936.38
2022-12-11T08:34:47.405Z,95972.16
2022-12-11T08:37:37.276Z,95970.88
2022-12-11T08:40:23.780Z,95731.16
2022-12-11T08:43:10.538Z,95873.44
2022-12-11T08:45:56.797Z,95964.97
2022-12-11T08:48:43.808Z,95957.50
2022-12-11T08:51:30.758Z,95779.81
2022-12-11T08:54:17.439Z,95962.53
2022-12-11T08:57:04.282Z,95950.19
2022-12-11T08:59:52.203Z,95787.50
2022-12-11T09:02:38.662Z,95915.44
2022-12-11T09:05:24.742Z,95941.38
2022-12-11T09:08:11.408Z,95939.69
2022-12-11T09:11:02.347Z,95859.38
2022-12-11T09:13:48.612Z,95741.81
2022-12-11T09:16:37.779Z,95926.47
2022-12-11T09:19:26.678Z,95816.38
2022-12-11T09:22:16.204Z,95894.78
2022-12-11T09:25:01.571Z,95842.09
2022-12-11T09:27:47.201Z,95875.47
2022-12-11T09:30:33.164Z,95875.06
2022-12-11T09:33:19.022Z,95881.78
2022-12-11T09:36:05.847Z,95912.97
2022-12-11T09:38:52.232Z,95894.97
2022-12-11T09:41:40.734Z,95917.00
2022-12-11T09:44:43.507Z,95900.19
2022-12-11T09:47:40.199Z,95914.00
2022-12-11T09:50:27.942Z,95888.38
2022-12-11T09:53:27.780Z,95702.28
2022-12-11T09:56:25.893Z,95713.41
2022-12-11T09:59:30.327Z,95937.16
2022-12-11T10:02:42.526Z,95926.53
2022-12-11T10:06:09.331Z,95851.22
2022-12-11T10:09:20.575Z,96015.31
2022-12-11T10:12:23.097Z,95792.56
2022-12-11T10:15:31.716Z,95893.78
2022-12-11T10:18:21.315Z,95790.31
2022-12-11T10:21:07.348Z,95913.38
2022-12-11T10:23:58.804Z,95710.72
2022-12-11T10:26:47.088Z,95837.16
2022-12-11T10:29:34.289Z,95918.53
2022-12-11T10:32:29.684Z,95945.59
2022-12-11T10:35:28.153Z,95939.16
2022-12-11T10:38:15.698Z,95933.84
2022-12-11T10:41:04.566Z,95922.91
2022-12-11T10:43:51.953Z,95724.53
2022-12-11T10:46:37.569Z,95733.47
2022-12-11T10:49:30.268Z,95933.00
2022-12-11T10:52:26.776Z,95918.34
2022-12-11T10:55:21.514Z,95916.34
2022-12-11T10:58:28.457Z,95912.31
2022-12-11T11:01:17.100Z,95867.38
2022-12-11T11:04:14.651Z,95866.00
2022-12-11T11:07:12.993Z,95851.00
2022-12-11T11:10:11.175Z,95912.63
2022-12-11T11:13:02.356Z,95911.16
2022-12-11T11:15:48.147Z,95895.34
2022-12-11T11:18:34.775Z,95892.44
2022-12-11T11:21:25.180Z,95730.91
2022-12-11T11:24:26.140Z,95725.97
2022-12-11T11:27:29.978Z,95930.16
2022-12-11T11:30:52.460Z,95860.47
2022-12-11T11:34:00.238Z,95960.31
2022-12-11T11:36:57.583Z,95970.94
2022-12-11T11:39:45.227Z,95984.13
2022-12-11T11:42:39.092Z,95753.25
2022-12-11T11:45:31.907Z,95853.31
2022-12-11T11:48:44.092Z,95936.00
2022-12-11T11:51:34.614Z,96003.56
2022-12-11T11:54:41.991Z,95829.16
2022-12-11T11:57:49.904Z,95976.19
2022-12-11T12:00:35.579Z,95873.69
2022-12-11T12:03:23.883Z,95895.22
2022-12-11T12:06:28.175Z,95967.72
2022-12-11T12:09:19.353Z,95970.63
2022-12-11T12:12:34.105Z,95971.44
2022-12-11T12:15:34.787Z,95967.41
2022-12-11T12:18:51.453Z,95983.78
2022-12-11T12:21:42.286Z,95784.63
2022-12-11T12:24:46.361Z,96014.63
2022-12-11T12:27:55.780Z,95932.16
2022-12-11T12:30:52.192Z,95882.78
2022-12-11T12:34:14.362Z,96007.84
2022-12-11T12:37:10.950Z,96011.69
2022-12-11T12:40:15.336Z,96024.28
2022-12-11T12:43:39.843Z,96029.81
2022-12-11T12:46:47.135Z,96064.75
2022-12-11T12:49:43.379Z,96052.09
2022-12-11T14:24:14.168Z,96039.41
2022-12-11T14:27:00.176Z,96215.88
2022-12-11T14:29:45.985Z,96120.72
2022-12-11T14:32:37.297Z,96124.72
2022-12-11T14:35:35.654Z,96239.06
2022-12-11T14:38:28.674Z,96218.88
2022-12-11T14:41:47.952Z,96212.28
2022-12-11T14:44:53.243Z,96253.38
2022-12-11T14:47:43.329Z,96269.16
2022-12-11T14:50:52.226Z,96100.53
2022-12-11T14:53:44.056Z,96280.44
2022-12-11T14:56:30.853Z,96266.03
2022-12-11T14:59:26.902Z,96288.44
2022-12-11T15:02:24.205Z,96282.84
2022-12-11T15:05:13.094Z,96282.28
2022-12-11T15:08:03.973Z,96286.84
2022-12-11T15:11:11.430Z,96279.75
2022-12-11T15:13:59.605Z,96278.78
2022-12-11T15:16:47.880Z,96208.44
2022-12-11T15:19:35.016Z,96285.19
2022-12-11T15:22:26.451Z,96287.78
2022-12-11T15:25:22.310Z,96314.66
2022-12-11T15:28:27.365Z,96239.09
2022-12-11T15:31:28.007Z,96241.81
2022-12-11T15:34:23.391Z,96268.34
2022-12-11T15:37:30.131Z,96301.63
2022-12-11T15:40:15.748Z,96301.28
2022-12-11T15:43:02.558Z,96299.47
2022-12-11T15:45:48.152Z,96276.28
2022-12-11T15:48:34.378Z,96324.16
2022-12-11T15:51:20.044Z,96272.16
2022-12-11T15:54:07.966Z,96316.72
2022-12-11T15:56:55.062Z,96322.00
2022-12-11T15:59:40.671Z,96315.47
2022-12-11T16:02:27.958Z,96265.13
2022-12-11T16:05:15.388Z,96312.59
2022-12-11T16:08:01.198Z,96336.19
2022-12-11T16:10:48.183Z,96341.09
2022-12-11T16:13:35.318Z,96342.69
2022-12-11T16:16:21.972Z,96338.69
2022-12-11T16:19:09.221Z,96247.72
2022-12-11T16:21:54.893Z,96322.75
2022-12-11T16:24:41.134Z,96338.34
2022-12-11T16:27:27.168Z,96318.44
2022-12-11T16:30:13.906Z,96288.69
2022-12-11T16:32:59.737Z,96371.75
2022-12-11T16:35:45.178Z,96283.44
2022-12-11T16:38:30.599Z,96348.16
2022-12-11T16:41:19.714Z,96361.22
2022-12-11T16:44:05.718Z,96288.38
2022-12-11T16:46:55.342Z,96375.75
2022-12-11T16:49:46.157Z,96312.50
2022-12-11T16:52:35.019Z,96365.94
2022-12-11T16:55:22.443Z,96350.19
2022-12-11T16:58:08.353Z,96184.34
2022-12-11T17:01:02.451Z,96374.69
2022-12-11T17:03:48.654Z,96374.31
2022-12-11T17:06:37.037Z,96375.22
2022-12-11T17:09:24.142Z,96385.56
2022-12-11T17:12:13.171Z,96360.56
2022-12-11T17:14:59.693Z,96395.56
2022-12-11T17:17:55.322Z,96399.00
2022-12-11T17:20:45.093Z,96391.03
2022-12-11T17:23:31.065Z,96410.09
2022-12-11T17:26:19.741Z,96382.13
2022-12-11T17:29:05.398Z,96415.69
2022-12-11T17:31:51.978Z,96404.78
2022-12-11T17:34:38.762Z,96413.88
2022-12-11T17:37:24.631Z,96409.19
2022-12-11T17:40:10.803Z,96245.22
2022-12-11T17:42:57.403Z,96419.34
2022-12-11T17:45:45.232Z,96423.69
2022-12-11T17:48:31.677Z,96455.97
2022-12-11T17:51:22.024Z,96244.06
2022-12-11T17:54:07.684Z,96432.38
2022-12-11T17:56:52.850Z,96243.66
2022-12-11T17:59:38.630Z,96423.66
2022-12-11T18:02:24.410Z,96385.31
2022-12-11T18:05:10.459Z,96397.13
2022-12-11T18:07:58.105Z,96430.84
2022-12-11T18:10:44.863Z,96432.50
2022-12-11T18:13:30.600Z,96451.75
2022-12-11T18:16:21.009Z,96465.34
2022-12-11T18:19:10.185Z,96431.19
2022-12-11T18:21:58.866Z,96459.91
2022-12-11T18:24:48.980Z,96425.38
2022-12-11T18:27:35.013Z,96415.22
2022-12-11T18:30:26.476Z,96466.81
2022-12-11T18:33:15.815Z,96460.47
2022-12-11T18:36:01.900Z,96458.84
2022-12-11T18:38:49.200Z,96460.28
2022-12-11T18:41:35.516Z,96458.56
2022-12-11T18:44:22.758Z,96462.06
2022-12-11T18:47:09.118Z,96482.38
2022-12-11T18:49:59.194Z,96488.97
2022-12-11T18:52:47.800Z,96497.28
2022-12-11T18:55:35.009Z,96487.84
2022-12-11T18:58:21.243Z,96475.31
2022-12-11T19:01:09.294Z,96498.75
2022-12-11T19:04:02.020Z,96482.09
2022-12-11T19:06:49.469Z,96484.16
2022-12-11T19:09:38.249Z,96484.19
2022-12-11T19:12:24.723Z,96455.59
2022-12-11T19:15:11.245Z,96493.41
2022-12-11T19:17:57.494Z,96498.28
2022-12-11T19:20:57.787Z,96283.91
2022-12-11T19:23:49.286Z,96252.28
2022-12-11T19:26:35.789Z,96323.84
2022-12-11T19:29:25.505Z,96290.59
2022-12-11T19:32:11.122Z,96250.59
2022-12-11T19:34:57.833Z,96489.34
2022-12-11T19:37:47.722Z,96450.53
2022-12-11T19:40:43.434Z,96466.16
2022-12-11T19:43:30.099Z,96520.84
2022-12-11T19:46:25.613Z,96381.41
2022-12-11T19:49:12.741Z,96469.03
2022-12-11T19:52:00.613Z,96503.19
2022-12-11T19:54:50.793Z,96532.38
2022-12-11T19:57:37.543Z,96534.81
2022-12-11T20:00:24.631Z,96541.69
2022-12-11T20:03:11.242Z,96566.28
2022-12-11T20:06:06.584Z,96328.94
2022-12-11T20:08:52.246Z,96529.78
2022-12-11T20:11:41.012Z,96544.53
2022-12-11T20:14:27.401Z,96541.53
2022-12-11T20:17:15.094Z,96540.09
2022-12-11T20:20:01.631Z,96388.72
2022-12-11T20:22:48.678Z,96568.00
2022-12-11T20:25:34.934Z,96604.38
2022-12-11T20:28:22.352Z,96580.78
2022-12-11T20:31:19.538Z,96562.19
2022-12-11T20:34:06.964Z,96520.00
2022-12-11T20:36:53.092Z,96529.50
2022-12-11T20:39:41.997Z,96525.13
2022-12-11T20:42:27.953Z,96507.66
2022-12-11T20:45:14.595Z,96582.88
2022-12-11T20:48:00.653Z,96582.16
2022-12-11T20:50:47.257Z,96586.84
2022-12-11T20:53:34.869Z,96570.94
2022-12-11T20:56:20.779Z,96575.28
2022-12-11T20:59:08.549Z,96579.66
2022-12-11T21:01:54.787Z,96588.34
2022-12-11T21:04:41.385Z,96583.66
2022-12-11T21:07:30.247Z,96589.28
2022-12-11T21:10:20.653Z,96526.59
2022-12-11T21:13:06.229Z,96361.53
2022-12-11T21:15:56.358Z,96561.28
2022-12-11T21:18:51.930Z,96528.13
2022-12-11T21:21:42.503Z,96560.16
2022-12-11T21:24:30.281Z,96549.28
2022-12-11T21:27:20.507Z,96564.72
2022-12-11T21:30:12.491Z,96533.25
2022-12-11T21:33:01.183Z,96538.63
2022-12-11T21:35:54.302Z,96403.97
2022-12-11T21:38:42.401Z,96602.97
2022-12-11T21:41:32.947Z,96611.59
2022-12-11T21:47:30.114Z,96623.94
2022-12-11T21:50:15.937Z,96608.47
2022-12-11T21:53:02.106Z,96630.03
2022-12-11T21:55:47.533Z,96418.25
2022-12-11T21:58:33.347Z,96550.75
2022-12-11T22:01:30.985Z,96432.75
2022-12-11T22:04:16.967Z,96413.50
2022-12-11T22:07:02.701Z,96618.75
2022-12-11T22:09:48.262Z,96651.38
2022-12-11T22:12:34.707Z,96616.25
2022-12-11T22:15:20.561Z,96610.06
2022-12-11T22:18:06.396Z,96539.28
2022-12-11T22:20:52.491Z,96623.97
2022-12-11T22:23:43.234Z,96647.22
2022-12-11T22:26:29.280Z,96608.97
2022-12-11T22:29:15.574Z,96591.22
2022-12-11T22:32:01.387Z,96397.31
2022-12-11T22:34:47.131Z,96597.53
2022-12-11T22:37:32.957Z,96405.34
2022-12-11T22:40:18.611Z,96414.63
2022-12-11T22:43:04.167Z,96548.78
2022-12-11T22:45:50.459Z,96596.47
2022-12-11T22:48:36.455Z,96592.47
2022-12-11T22:51:22.952Z,96572.28
2022-12-11T22:54:08.858Z,96386.38
2022-12-11T22:56:54.743Z,96588.31
2022-12-11T22:59:41.492Z,96581.41
2022-12-11T23:02:27.103Z,96582.88
2022-12-11T23:05:13.058Z,96345.66
2022-12-11T23:07:58.965Z,96594.81
2022-12-11T23:10:44.957Z,96588.56
2022-12-11T23:13:30.514Z,96529.22
2022-12-11T23:16:16.591Z,96612.19
2022-12-11T23:19:02.009Z,96615.94
2022-12-11T23:21:48.218Z,96595.09
2022-12-11T23:24:33.658Z,96632.84
2022-12-11T23:27:19.757Z,96629.53
2022-12-11T23:30:06.298Z,96420.16
2022-12-11T23:32:51.841Z,96596.69
2022-12-11T23:35:37.263Z,96641.13
2022-12-11T23:38:23.082Z,96647.31
2022-12-11T23:41:11.820Z,96568.38
2022-12-11T23:43:57.824Z,96436.25
2022-12-11T23:46:45.158Z,96568.75
2022-12-11T23:49:31.158Z,96632.03
2022-12-11T23:52:16.760Z,96643.31
2022-12-11T23:55:02.650Z,96646.19
2022-12-11T23:57:48.038Z,96655.31
